Time;durP1;ratioP1;P1;durP2;ratioP2;P2;SDS_P1;SDS_P2;PMS_P1;PMS_P2;Temp;Humidity;BMP_temperature;BMP_pressure;BME280_temperature;BME280_humidity;BME280_pressure;Samples;Min_cycle;Max_cycle;Signal;HPM_P1;HPM_P2
2021/09/27 00:02:07;;;;;;;18.17;16.40;;;16.30;99.90;;;;;;5063877;28;20027;-63
2021/09/27 00:04:33;;;;;;;18.48;15.90;;;16.30;99.90;;;;;;5052487;28;20477;-63
2021/09/27 00:06:59;;;;;;;22.10;15.35;;;16.30;99.90;;;;;;5053261;28;20025;-62
2021/09/27 00:09:32;;;;;;;17.98;15.80;;;16.30;99.90;;;;;;5053289;28;20078;-62
2021/09/27 00:11:59;;;;;;;17.83;15.70;;;16.30;99.90;;;;;;5039132;28;20033;-62
2021/09/27 00:14:25;;;;;;;18.45;15.25;;;16.30;99.90;;;;;;5052961;28;20528;-63
2021/09/27 00:16:50;;;;;;;16.80;15.13;;;16.20;99.90;;;;;;5046478;28;20136;-62
2021/09/27 00:19:16;;;;;;;17.27;15.00;;;16.20;99.90;;;;;;5038298;28;20022;-63
2021/09/27 00:21:41;;;;;;;17.90;15.65;;;16.20;99.90;;;;;;5054976;28;20038;-63
2021/09/27 00:24:07;;;;;;;17.77;15.95;;;16.20;99.90;;;;;;5054941;28;20025;-62
2021/09/27 00:26:33;;;;;;;15.95;14.25;;;16.10;99.90;;;;;;5059931;28;20025;-63
2021/09/27 00:28:58;;;;;;;16.60;14.38;;;16.10;99.90;;;;;;5057996;28;20495;-63
2021/09/27 00:31:24;;;;;;;17.20;15.02;;;16.10;99.90;;;;;;5037447;28;20021;-62
2021/09/27 00:33:50;;;;;;;15.80;14.20;;;16.10;99.90;;;;;;5055932;28;20032;-62
2021/09/27 00:36:17;;;;;;;15.68;14.07;;;16.10;99.90;;;;;;5059681;28;20563;-62
2021/09/27 00:38:43;;;;;;;19.98;14.98;;;16.10;99.90;;;;;;5061954;28;20025;-63
2021/09/27 00:41:13;;;;;;;17.08;14.38;;;16.00;99.90;;;;;;5056608;28;20021;-62
2021/09/27 00:43:40;;;;;;;16.92;14.40;;;16.00;99.90;;;;;;5053608;28;20381;-63
2021/09/27 00:46:11;;;;;;;17.05;14.60;;;16.00;99.90;;;;;;5041068;28;20384;-62
2021/09/27 00:48:37;;;;;;;18.35;14.20;;;16.00;99.90;;;;;;5064655;28;20025;-62
2021/09/27 00:51:08;;;;;;;17.10;14.57;;;16.00;99.90;;;;;;5038182;28;20473;-62
2021/09/27 00:53:42;;;;;;;16.20;14.32;;;16.00;99.90;;;;;;5055315;28;20016;-63
2021/09/27 00:56:08;;;;;;;15.85;13.02;;;16.00;99.90;;;;;;5044143;28;20492;-63
2021/09/27 00:58:36;;;;;;;17.75;14.30;;;15.90;99.90;;;;;;5059032;28;20099;-62
2021/09/27 01:01:03;;;;;;;15.82;14.23;;;15.90;99.90;;;;;;5053074;28;20021;-62
2021/09/27 01:03:29;;;;;;;16.85;13.98;;;15.90;99.90;;;;;;5055643;28;20021;-63
2021/09/27 01:06:12;;;;;;;17.73;14.73;;;15.80;99.90;;;;;;5048108;28;20025;-62
2021/09/27 01:09:03;;;;;;;19.13;15.23;;;15.90;99.90;;;;;;5052172;28;20020;-62
2021/09/27 01:12:17;;;;;;;16.75;15.10;;;15.90;99.90;;;;;;5065915;28;20099;-62
2021/09/27 01:14:51;;;;;;;18.02;14.75;;;15.80;99.90;;;;;;5056495;28;20621;-63
2021/09/27 01:17:35;;;;;;;17.00;14.18;;;15.80;99.90;;;;;;5052060;28;20016;-62
2021/09/27 01:20:21;;;;;;;16.70;14.82;;;15.80;99.90;;;;;;5056340;28;20021;-62
2021/09/27 01:22:49;;;;;;;16.73;14.43;;;15.80;99.90;;;;;;5029435;28;20033;-62
2021/09/27 01:25:42;;;;;;;16.60;14.35;;;15.70;99.90;;;;;;5049082;28;20087;-63
2021/09/27 01:28:23;;;;;;;18.63;14.60;;;15.70;99.90;;;;;;5059266;28;20027;-62
2021/09/27 01:31:00;;;;;;;16.27;13.95;;;15.70;99.90;;;;;;5054279;28;20020;-63
2021/09/27 01:33:44;;;;;;;15.55;13.75;;;15.70;99.90;;;;;;5052614;28;20021;-63
2021/09/27 01:36:17;;;;;;;16.25;14.25;;;15.70;99.90;;;;;;5058022;28;20104;-62
2021/09/27 01:38:58;;;;;;;17.15;15.35;;;15.60;99.90;;;;;;5049471;28;20029;-62
2021/09/27 01:41:44;;;;;;;17.02;14.38;;;15.60;99.90;;;;;;5050570;28;20432;-63
2021/09/27 01:44:34;;;;;;;17.55;15.52;;;15.60;99.90;;;;;;5048408;28;20104;-62
2021/09/27 01:47:09;;;;;;;15.77;13.65;;;15.60;99.90;;;;;;5037502;28;20017;-62
2021/09/27 01:49:46;;;;;;;18.30;14.10;;;15.50;99.90;;;;;;5025976;28;20032;-62
2021/09/27 01:52:20;;;;;;;16.75;14.70;;;15.60;99.90;;;;;;5049104;28;20029;-62
2021/09/27 01:54:50;;;;;;;17.52;14.80;;;15.50;99.90;;;;;;5044844;28;20029;-62
2021/09/27 01:57:41;;;;;;;16.50;13.82;;;15.50;99.90;;;;;;5059532;28;20507;-62
2021/09/27 02:00:18;;;;;;;16.00;13.10;;;15.50;99.90;;;;;;5037667;28;20431;-62
2021/09/27 02:02:50;;;;;;;16.08;13.20;;;15.50;99.90;;;;;;5050209;28;20033;-63
2021/09/27 02:05:31;;;;;;;14.65;13.05;;;15.50;99.90;;;;;;5050769;28;20086;-63
2021/09/27 02:08:04;;;;;;;15.43;13.73;;;15.50;99.90;;;;;;5042418;28;20119;-63
2021/09/27 02:10:37;;;;;;;14.88;13.02;;;15.50;99.90;;;;;;5048756;28;20060;-62
2021/09/27 02:13:05;;;;;;;14.60;13.10;;;15.50;99.90;;;;;;5054293;28;20021;-63
2021/09/27 02:15:39;;;;;;;15.65;13.68;;;15.50;99.90;;;;;;5056751;28;20167;-62
2021/09/27 02:18:10;;;;;;;19.17;14.20;;;15.50;99.90;;;;;;5051180;28;20040;-62
2021/09/27 02:21:01;;;;;;;19.48;14.52;;;15.50;99.90;;;;;;5036606;28;20515;-62
2021/09/27 02:23:34;;;;;;;15.40;12.70;;;15.50;99.90;;;;;;5054619;28;20067;-63
2021/09/27 02:26:00;;;;;;;14.85;13.07;;;15.50;99.90;;;;;;5054943;28;20029;-63
2021/09/27 02:28:26;;;;;;;14.68;13.07;;;15.50;99.90;;;;;;5051957;28;20025;-63
2021/09/27 02:31:05;;;;;;;16.73;13.20;;;15.50;99.90;;;;;;5031412;28;20028;-63
2021/09/27 02:33:49;;;;;;;16.52;13.25;;;15.50;99.90;;;;;;5056959;28;20035;-63
2021/09/27 02:36:24;;;;;;;19.70;14.60;;;15.50;99.90;;;;;;5051682;28;20066;-63
2021/09/27 02:39:05;;;;;;;18.02;14.88;;;15.40;99.90;;;;;;5033989;28;20036;-63
2021/09/27 02:41:46;;;;;;;18.95;15.30;;;15.40;99.90;;;;;;5051795;28;20092;-63
2021/09/27 02:44:13;;;;;;;16.27;14.40;;;15.40;99.90;;;;;;5051688;28;20488;-63
2021/09/27 02:46:46;;;;;;;15.90;14.32;;;15.30;99.90;;;;;;5051460;28;20033;-63
2021/09/27 02:49:14;;;;;;;21.02;15.48;;;15.30;99.90;;;;;;5053600;28;23670;-63
2021/09/27 02:51:46;;;;;;;17.05;13.82;;;15.30;99.90;;;;;;5049331;28;20043;-63
2021/09/27 02:54:18;;;;;;;18.55;14.40;;;15.30;99.90;;;;;;5035330;28;20146;-63
2021/09/27 02:57:02;;;;;;;18.73;15.25;;;15.20;99.90;;;;;;5049358;28;20053;-63
2021/09/27 02:59:48;;;;;;;16.77;14.48;;;15.30;99.90;;;;;;5051453;28;20013;-62
2021/09/27 03:02:38;;;;;;;16.23;14.50;;;15.30;99.90;;;;;;5054235;28;20473;-63
2021/09/27 03:05:16;;;;;;;18.83;14.63;;;15.20;99.90;;;;;;5054144;28;20024;-62
2021/09/27 03:07:51;;;;;;;19.13;14.18;;;15.20;99.90;;;;;;5048472;28;20037;-63
2021/09/27 03:10:35;;;;;;;18.25;13.82;;;15.20;99.90;;;;;;5033343;28;20032;-63
2021/09/27 03:13:16;;;;;;;14.43;12.82;;;15.20;99.90;;;;;;5051110;28;20100;-63
2021/09/27 03:15:56;;;;;;;15.60;13.07;;;15.20;99.90;;;;;;5051054;28;20031;-63
2021/09/27 03:18:47;;;;;;;20.75;12.80;;;15.20;99.90;;;;;;5051290;28;20013;-63
2021/09/27 03:21:22;;;;;;;13.77;12.38;;;15.20;99.90;;;;;;5053861;28;20473;-62
2021/09/27 03:24:19;;;;;;;14.90;13.20;;;15.20;99.90;;;;;;5033105;28;20399;-63
2021/09/27 03:27:01;;;;;;;14.40;12.90;;;15.20;99.90;;;;;;5049229;28;20032;-63
2021/09/27 03:29:41;;;;;;;17.35;13.68;;;15.20;99.90;;;;;;5036040;28;20029;-63
2021/09/27 03:32:38;;;;;;;16.45;14.45;;;15.20;99.90;;;;;;5049273;28;20108;-63
2021/09/27 03:35:19;;;;;;;16.60;13.32;;;15.20;99.90;;;;;;5048737;28;20111;-62
2021/09/27 03:37:57;;;;;;;13.95;12.05;;;15.20;99.90;;;;;;5050894;28;20017;-62
2021/09/27 03:40:46;;;;;;;12.88;11.18;;;15.20;99.90;;;;;;5051051;28;20031;-62
2021/09/27 03:43:26;;;;;;;13.95;11.57;;;15.20;99.90;;;;;;5050075;28;20025;-63
2021/09/27 03:46:04;;;;;;;15.65;12.45;;;15.20;99.90;;;;;;5053488;28;20028;-63
2021/09/27 03:48:39;;;;;;;15.18;12.32;;;15.20;99.90;;;;;;5059938;28;20037;-62
2021/09/27 03:51:30;;;;;;;14.60;11.82;;;15.20;99.90;;;;;;5054309;28;20029;-63
2021/09/27 03:54:03;;;;;;;16.17;13.68;;;15.20;99.90;;;;;;5054130;28;20087;-63
2021/09/27 03:56:44;;;;;;;16.92;13.93;;;15.20;99.90;;;;;;5042439;28;20057;-63
2021/09/27 03:59:19;;;;;;;19.02;14.38;;;15.20;99.90;;;;;;5060376;28;20042;-63
2021/09/27 04:01:47;;;;;;;14.70;13.18;;;15.20;99.90;;;;;;5053158;28;20021;-63
2021/09/27 04:04:31;;;;;;;16.80;14.93;;;15.20;99.90;;;;;;5039102;28;20018;-62
2021/09/27 04:07:18;;;;;;;21.17;15.13;;;15.30;99.90;;;;;;5036365;28;20075;-62
2021/09/27 04:09:55;;;;;;;17.15;15.35;;;15.30;99.90;;;;;;5036683;28;20053;-63
2021/09/27 04:12:34;;;;;;;20.23;15.18;;;15.30;99.90;;;;;;5060545;28;20025;-63
2021/09/27 04:15:14;;;;;;;16.98;15.23;;;15.40;99.90;;;;;;5051724;28;20024;-62
2021/09/27 04:18:11;;;;;;;17.83;15.00;;;15.50;99.90;;;;;;5054662;28;20025;-62
2021/09/27 04:20:51;;;;;;;18.50;15.02;;;15.50;99.90;;;;;;5054217;28;20111;-62
2021/09/27 04:23:36;;;;;;;20.90;16.15;;;15.60;99.90;;;;;;5054092;28;20022;-63
2021/09/27 04:26:16;;;;;;;19.23;14.90;;;15.60;99.90;;;;;;5054377;28;20480;-63
2021/09/27 04:29:07;;;;;;;17.98;15.52;;;15.70;99.90;;;;;;5054257;28;20067;-63
2021/09/27 04:32:02;;;;;;;18.67;16.20;;;15.70;99.90;;;;;;5054260;28;20021;-63
2021/09/27 04:35:10;;;;;;;19.48;14.98;;;15.70;99.90;;;;;;5059811;28;20489;-62
2021/09/27 04:37:37;;;;;;;17.55;14.63;;;15.80;99.90;;;;;;5053703;28;20105;-62
2021/09/27 04:40:07;;;;;;;18.02;14.13;;;15.70;99.90;;;;;;5054018;28;20480;-63
2021/09/27 04:42:46;;;;;;;19.83;14.93;;;15.80;99.90;;;;;;5035935;28;20384;-62
2021/09/27 04:45:30;;;;;;;17.08;14.13;;;15.80;99.90;;;;;;5054019;28;20423;-63
2021/09/27 04:48:27;;;;;;;16.75;13.98;;;15.80;99.90;;;;;;5056765;28;20021;-62
2021/09/27 04:51:24;;;;;;;15.05;13.07;;;15.80;99.90;;;;;;5057488;28;20028;-63
2021/09/27 04:54:07;;;;;;;19.30;13.82;;;15.90;99.90;;;;;;5056733;28;20486;-63
2021/09/27 04:56:45;;;;;;;17.90;15.05;;;15.90;99.90;;;;;;5050452;28;20493;-63
2021/09/27 04:59:16;;;;;;;16.85;13.88;;;15.80;99.90;;;;;;5053643;28;20104;-62
2021/09/27 05:02:10;;;;;;;19.92;15.60;;;15.80;99.90;;;;;;5054715;28;20507;-63
2021/09/27 05:04:56;;;;;;;18.50;14.90;;;15.80;99.90;;;;;;5023419;28;20033;-62
2021/09/27 05:07:24;;;;;;;16.70;14.95;;;15.80;99.90;;;;;;5056116;28;20056;-63
2021/09/27 05:10:08;;;;;;;18.38;13.98;;;15.70;99.90;;;;;;5058577;28;20499;-63
2021/09/27 05:13:07;;;;;;;15.48;13.85;;;15.70;99.90;;;;;;5052559;28;20029;-63
2021/09/27 05:16:10;;;;;;;17.55;14.02;;;15.70;99.90;;;;;;5055796;28;20013;-63
2021/09/27 05:18:41;;;;;;;16.55;13.82;;;15.60;99.90;;;;;;5058154;28;20021;-63
2021/09/27 05:21:36;;;;;;;17.33;14.10;;;15.60;99.90;;;;;;5053267;28;20044;-63
2021/09/27 05:24:04;;;;;;;17.10;14.48;;;15.60;99.90;;;;;;5053016;28;20104;-62
2021/09/27 05:26:39;;;;;;;16.38;14.50;;;15.60;99.90;;;;;;5052998;28;20525;-63
2021/09/27 05:29:33;;;;;;;16.00;13.90;;;15.60;99.90;;;;;;5035379;28;20024;-63
2021/09/27 05:32:15;;;;;;;15.52;13.93;;;15.60;99.90;;;;;;5055781;28;20028;-63
2021/09/27 05:35:01;;;;;;;18.55;14.95;;;15.60;99.90;;;;;;5053226;28;20025;-63
2021/09/27 05:37:36;;;;;;;18.20;15.32;;;15.50;99.90;;;;;;5054316;28;20023;-63
2021/09/27 05:40:28;;;;;;;17.55;14.80;;;15.50;99.90;;;;;;5053931;28;20017;-63
2021/09/27 05:43:14;;;;;;;20.98;16.45;;;15.50;99.90;;;;;;5052970;28;20061;-63
2021/09/27 05:46:10;;;;;;;17.23;15.43;;;15.50;99.90;;;;;;5033284;28;20035;-63
2021/09/27 05:48:59;;;;;;;21.23;15.18;;;15.50;99.90;;;;;;5053491;28;20028;-63
2021/09/27 05:51:32;;;;;;;19.83;14.57;;;15.50;99.90;;;;;;5033641;28;20037;-62
2021/09/27 05:54:36;;;;;;;15.95;14.27;;;15.50;99.90;;;;;;5053865;28;20052;-63
2021/09/27 05:57:21;;;;;;;18.20;14.60;;;15.50;99.90;;;;;;5049621;28;20040;-63
2021/09/27 05:59:56;;;;;;;18.55;15.15;;;15.50;99.90;;;;;;5041491;28;20049;-63
2021/09/27 06:02:41;;;;;;;19.13;15.05;;;15.60;99.90;;;;;;5052409;28;20415;-63
2021/09/27 06:05:16;;;;;;;18.13;16.08;;;15.60;99.90;;;;;;5040405;28;20021;-63
2021/09/27 06:08:06;;;;;;;19.23;15.90;;;15.60;99.90;;;;;;5043788;28;20295;-63
2021/09/27 06:10:35;;;;;;;16.83;15.02;;;15.60;99.90;;;;;;5051724;28;20040;-63
2021/09/27 06:13:00;;;;;;;20.55;16.13;;;15.70;99.90;;;;;;5044292;28;20389;-63
2021/09/27 06:15:37;;;;;;;22.85;16.20;;;15.60;99.90;;;;;;5051311;28;20469;-63
2021/09/27 06:18:29;;;;;;;17.50;15.32;;;15.70;99.90;;;;;;5052686;28;20086;-63
2021/09/27 06:21:18;;;;;;;17.38;15.48;;;15.70;99.90;;;;;;5050754;28;20048;-63
2021/09/27 06:24:16;;;;;;;18.75;15.90;;;15.70;99.90;;;;;;5028509;28;20484;-63
2021/09/27 06:26:55;;;;;;;17.45;15.55;;;15.70;99.90;;;;;;5031815;28;20064;-63
2021/09/27 06:29:44;;;;;;;23.13;17.58;;;15.70;99.90;;;;;;5053024;28;20538;-63
2021/09/27 06:32:19;;;;;;;21.10;16.77;;;15.70;99.90;;;;;;5051277;28;20028;-63
2021/09/27 06:34:49;;;;;;;19.45;16.92;;;15.80;99.90;;;;;;5044992;28;20029;-63
2021/09/27 06:37:20;;;;;;;21.55;17.73;;;15.80;99.90;;;;;;5048597;28;20108;-63
2021/09/27 06:39:47;;;;;;;19.80;17.70;;;15.90;99.90;;;;;;5043955;28;20021;-63
2021/09/27 06:42:12;;;;;;;22.42;19.10;;;15.90;99.90;;;;;;5049455;28;20100;-63
2021/09/27 06:44:40;;;;;;;20.05;17.15;;;15.90;99.90;;;;;;5051723;28;20096;-63
2021/09/27 06:47:06;;;;;;;23.08;18.77;;;16.00;99.90;;;;;;5033923;28;20477;-63
2021/09/27 06:49:31;;;;;;;19.25;17.00;;;16.00;99.90;;;;;;5033405;28;20027;-63
2021/09/27 06:51:57;;;;;;;20.55;17.23;;;16.00;99.90;;;;;;5030435;28;20029;-63
2021/09/27 06:54:23;;;;;;;20.52;18.33;;;16.10;99.90;;;;;;5046146;28;20521;-63
2021/09/27 06:56:48;;;;;;;22.00;18.85;;;16.10;99.90;;;;;;5051769;28;20091;-63
2021/09/27 06:59:17;;;;;;;20.75;18.55;;;16.20;99.90;;;;;;5034842;28;20024;-62
2021/09/27 07:01:43;;;;;;;25.58;19.98;;;16.20;99.90;;;;;;5045025;28;20048;-63
2021/09/27 07:04:08;;;;;;;23.33;20.23;;;16.30;99.90;;;;;;5052285;28;20028;-63
2021/09/27 07:06:34;;;;;;;20.13;18.02;;;16.40;99.90;;;;;;5051498;28;20025;-63
2021/09/27 07:09:00;;;;;;;21.33;19.23;;;16.40;99.90;;;;;;5039325;28;20033;-63
2021/09/27 07:11:26;;;;;;;22.83;20.42;;;16.40;99.90;;;;;;5052189;28;20388;-63
2021/09/27 07:13:51;;;;;;;21.88;19.38;;;16.50;99.90;;;;;;5029789;28;20497;-63
2021/09/27 07:16:17;;;;;;;24.13;20.67;;;16.60;99.90;;;;;;5043066;28;20504;-63
2021/09/27 07:18:42;;;;;;;22.90;20.45;;;16.70;99.90;;;;;;5049339;28;20311;-63
2021/09/27 07:21:09;;;;;;;22.13;19.35;;;16.80;99.90;;;;;;5041129;28;20025;-63
2021/09/27 07:23:38;;;;;;;24.50;21.17;;;16.90;99.90;;;;;;5051497;28;20017;-63
2021/09/27 07:26:22;;;;;;;24.15;20.98;;;17.00;99.90;;;;;;5032214;28;20107;-63
2021/09/27 07:28:52;;;;;;;23.15;20.50;;;17.10;99.90;;;;;;5038971;28;20477;-62
2021/09/27 07:31:19;;;;;;;23.90;21.00;;;17.10;99.90;;;;;;5039159;28;20049;-62
2021/09/27 07:33:46;;;;;;;23.30;20.90;;;17.20;99.90;;;;;;5051189;28;20043;-62
2021/09/27 07:36:12;;;;;;;23.45;21.00;;;17.20;99.90;;;;;;5040820;28;20030;-63
2021/09/27 07:38:37;;;;;;;23.00;20.25;;;17.20;99.90;;;;;;5049283;28;20135;-63
2021/09/27 07:41:03;;;;;;;22.05;18.40;;;17.20;99.90;;;;;;5025105;28;20036;-63
2021/09/27 07:43:28;;;;;;;24.95;20.05;;;17.30;99.90;;;;;;5047116;28;20033;-63
2021/09/27 07:45:54;;;;;;;21.70;19.35;;;17.30;99.90;;;;;;5051846;28;20036;-63
2021/09/27 07:48:20;;;;;;;21.52;19.17;;;17.30;99.90;;;;;;5030918;28;20481;-63
2021/09/27 07:50:48;;;;;;;21.40;18.65;;;17.40;99.90;;;;;;5046003;28;20061;-63
2021/09/27 07:53:14;;;;;;;19.80;17.80;;;17.40;99.90;;;;;;5041436;28;20021;-63
2021/09/27 07:55:41;;;;;;;20.45;17.45;;;17.50;99.90;;;;;;5033342;28;20045;-63
2021/09/27 07:58:07;;;;;;;20.63;18.38;;;17.50;99.90;;;;;;5052142;28;20387;-63
2021/09/27 08:00:33;;;;;;;19.50;17.33;;;17.60;99.90;;;;;;5051758;28;20632;-63
2021/09/27 08:02:59;;;;;;;17.90;16.10;;;17.60;99.90;;;;;;5049268;28;20029;-63
2021/09/27 08:05:29;;;;;;;19.58;17.25;;;17.70;99.90;;;;;;5039361;28;20027;-63
2021/09/27 08:07:55;;;;;;;19.45;17.38;;;17.70;99.90;;;;;;5050309;28;20496;-63
2021/09/27 08:10:23;;;;;;;19.38;16.80;;;17.80;99.90;;;;;;5039327;28;20029;-62
2021/09/27 08:12:49;;;;;;;17.95;15.93;;;17.90;99.90;;;;;;5051702;28;20030;-63
2021/09/27 08:15:24;;;;;;;19.67;17.58;;;18.00;99.90;;;;;;5037682;28;20087;-62
2021/09/27 08:17:52;;;;;;;19.52;16.35;;;18.00;99.90;;;;;;5033782;28;20496;-63
2021/09/27 08:20:28;;;;;;;17.85;15.82;;;18.10;99.90;;;;;;5051571;28;20029;-63
2021/09/27 08:22:55;;;;;;;21.52;17.42;;;18.20;99.90;;;;;;5048799;28;20031;-63
2021/09/27 08:25:22;;;;;;;19.33;17.25;;;18.20;99.90;;;;;;5033262;28;20033;-63
2021/09/27 08:27:48;;;;;;;17.42;15.43;;;18.20;99.90;;;;;;5051005;28;20482;-63
2021/09/27 08:30:22;;;;;;;17.75;15.85;;;18.30;99.90;;;;;;5047796;28;20036;-62
2021/09/27 08:32:47;;;;;;;17.10;15.05;;;18.30;99.90;;;;;;5048771;28;20550;-63
2021/09/27 08:35:14;;;;;;;19.05;15.35;;;18.30;99.90;;;;;;5054111;28;20037;-63
2021/09/27 08:37:41;;;;;;;17.73;15.93;;;18.30;99.90;;;;;;5045901;28;20021;-63
2021/09/27 08:40:10;;;;;;;16.30;14.02;;;18.30;99.90;;;;;;5048604;28;20527;-63
2021/09/27 08:42:41;;;;;;;16.30;13.75;;;18.30;99.90;;;;;;5053702;28;20021;-63
2021/09/27 08:45:27;;;;;;;17.15;14.40;;;18.40;99.90;;;;;;5048648;28;20071;-63
2021/09/27 08:48:02;;;;;;;17.00;14.48;;;18.50;99.90;;;;;;5051348;28;20032;-63
2021/09/27 08:50:42;;;;;;;14.63;12.60;;;18.50;99.90;;;;;;5049976;28;20025;-63
2021/09/27 08:53:25;;;;;;;17.80;13.63;;;18.60;99.90;;;;;;5052755;28;20481;-63
2021/09/27 08:55:54;;;;;;;17.77;13.15;;;18.60;99.90;;;;;;5046019;28;20052;-63
2021/09/27 08:58:48;;;;;;;16.63;12.20;;;18.60;99.90;;;;;;5051213;28;20017;-63
2021/09/27 09:01:18;;;;;;;13.45;11.38;;;18.70;99.90;;;;;;5051077;28;20087;-63
2021/09/27 09:04:02;;;;;;;14.38;11.77;;;18.70;99.90;;;;;;5050919;28;20029;-63
2021/09/27 09:06:37;;;;;;;13.90;11.70;;;18.70;99.90;;;;;;5033304;28;20478;-63
2021/09/27 09:09:37;;;;;;;13.30;10.48;;;18.70;99.90;;;;;;5050889;28;20031;-63
2021/09/27 09:12:22;;;;;;;14.27;10.85;;;18.80;99.90;;;;;;5054242;28;20477;-63
2021/09/27 09:15:11;;;;;;;11.98;10.80;;;18.80;99.70;;;;;;5054424;28;20025;-63
2021/09/27 09:18:14;;;;;;;13.80;11.00;;;18.80;99.80;;;;;;5042305;28;20036;-63
2021/09/27 09:20:50;;;;;;;13.73;10.77;;;18.90;99.90;;;;;;5027544;28;20036;-63
2021/09/27 09:23:29;;;;;;;14.30;10.52;;;19.00;99.90;;;;;;5042480;28;20417;-63
2021/09/27 09:25:55;;;;;;;11.98;10.77;;;19.10;99.80;;;;;;5020055;28;20389;-63
2021/09/27 09:28:22;;;;;;;14.00;11.48;;;19.20;99.40;;;;;;5051728;28;20032;-64
2021/09/27 09:31:07;;;;;;;12.38;10.73;;;19.20;99.20;;;;;;5043111;28;20099;-64
2021/09/27 09:33:38;;;;;;;12.35;9.90;;;19.30;98.90;;;;;;5050203;28;20455;-63
2021/09/27 09:36:05;;;;;;;14.68;9.38;;;19.40;99.00;;;;;;5050146;28;20021;-63
2021/09/27 09:38:34;;;;;;;13.00;9.90;;;19.50;98.20;;;;;;5034723;28;20032;-64
2021/09/27 09:41:01;;;;;;;12.18;8.75;;;19.60;98.10;;;;;;5053084;28;20508;-63
2021/09/27 09:43:53;;;;;;;9.80;8.05;;;19.70;97.90;;;;;;5052754;28;20488;-63
2021/09/27 09:46:32;;;;;;;12.20;8.65;;;19.80;97.40;;;;;;5046783;28;20088;-63
2021/09/27 09:49:04;;;;;;;9.05;7.10;;;19.80;97.30;;;;;;5031241;28;20021;-63
2021/09/27 09:51:35;;;;;;;9.45;6.82;;;19.90;97.60;;;;;;5046290;28;20032;-63
2021/09/27 09:54:03;;;;;;;9.90;7.20;;;20.10;97.60;;;;;;5048709;28;20060;-63
2021/09/27 09:56:33;;;;;;;9.27;6.82;;;20.20;96.70;;;;;;5040146;28;20051;-63
2021/09/27 09:58:59;;;;;;;9.85;7.15;;;20.00;96.40;;;;;;5053750;28;20028;-64
2021/09/27 10:01:33;;;;;;;9.93;6.80;;;19.90;96.70;;;;;;5039506;28;20017;-64
2021/09/27 10:04:06;;;;;;;9.77;6.20;;;19.90;96.50;;;;;;5053490;28;20080;-63
2021/09/27 10:06:56;;;;;;;8.73;6.00;;;19.90;96.80;;;;;;5047936;28;20432;-64
2021/09/27 10:09:36;;;;;;;6.55;4.65;;;19.90;96.50;;;;;;5045141;28;20048;-64
2021/09/27 10:12:14;;;;;;;8.82;5.68;;;19.80;96.50;;;;;;5026906;28;20018;-64
2021/09/27 10:14:41;;;;;;;6.95;5.65;;;19.80;96.70;;;;;;5049761;28;20229;-63
2021/09/27 10:17:26;;;;;;;7.25;4.95;;;19.70;96.60;;;;;;5035654;28;20035;-63
2021/09/27 10:20:15;;;;;;;10.73;5.70;;;19.60;96.70;;;;;;5038922;28;20021;-63
2021/09/27 10:22:55;;;;;;;6.82;5.15;;;19.60;96.60;;;;;;5035451;28;20429;-63
2021/09/27 10:25:59;;;;;;;7.90;5.32;;;19.60;96.70;;;;;;5039947;28;20037;-63
2021/09/27 10:28:25;;;;;;;8.30;5.40;;;19.50;97.00;;;;;;5029022;28;20473;-63
2021/09/27 10:30:56;;;;;;;6.93;5.07;;;19.40;96.90;;;;;;5053088;28;20031;-63
2021/09/27 10:33:31;;;;;;;8.40;5.35;;;19.40;97.10;;;;;;5021047;28;20030;-63
2021/09/27 10:36:13;;;;;;;9.02;5.13;;;19.40;97.00;;;;;;5034626;28;20036;-63
2021/09/27 10:38:58;;;;;;;8.20;5.65;;;19.50;97.00;;;;;;5034993;28;20021;-63
2021/09/27 10:41:38;;;;;;;7.78;4.68;;;19.40;97.10;;;;;;5030357;28;20412;-63
2021/09/27 10:44:37;;;;;;;6.35;4.57;;;19.50;97.20;;;;;;5022370;28;20029;-63
2021/09/27 10:47:10;;;;;;;7.57;5.38;;;19.60;97.20;;;;;;5047870;28;20051;-63
2021/09/27 10:49:43;;;;;;;4.53;4.10;;;19.70;97.20;;;;;;5039255;28;20484;-63
2021/09/27 10:52:24;;;;;;;6.32;4.85;;;19.70;96.80;;;;;;5048690;28;20049;-63
2021/09/27 10:54:58;;;;;;;5.63;4.53;;;19.90;97.30;;;;;;5049007;28;20036;-63
2021/09/27 10:57:31;;;;;;;4.78;3.80;;;19.90;96.50;;;;;;5045509;28;20061;-63
2021/09/27 11:00:03;;;;;;;7.22;3.85;;;19.90;96.10;;;;;;5045256;28;20478;-64
2021/09/27 11:02:39;;;;;;;7.35;4.10;;;20.00;95.80;;;;;;5034363;28;20115;-64
2021/09/27 11:05:35;;;;;;;8.85;3.33;;;20.00;95.50;;;;;;5052589;28;20017;-63
2021/09/27 11:08:10;;;;;;;4.32;2.95;;;20.10;95.70;;;;;;5047357;28;20033;-63
2021/09/27 11:10:49;;;;;;;5.53;3.17;;;20.00;95.50;;;;;;5043911;28;20104;-63
2021/09/27 11:13:37;;;;;;;5.45;3.88;;;20.10;95.20;;;;;;5051657;28;20083;-64
2021/09/27 11:16:21;;;;;;;4.28;3.13;;;20.20;95.20;;;;;;5051763;28;20098;-63
2021/09/27 11:18:55;;;;;;;6.60;3.28;;;20.20;95.40;;;;;;5050929;28;20025;-63
2021/09/27 11:21:43;;;;;;;3.92;2.88;;;20.20;94.70;;;;;;5034924;28;20025;-63
2021/09/27 11:24:09;;;;;;;4.78;2.72;;;20.20;94.50;;;;;;5048130;28;20029;-63
2021/09/27 11:26:44;;;;;;;4.90;2.95;;;20.40;94.10;;;;;;5028930;28;20027;-64
2021/09/27 11:29:30;;;;;;;3.78;3.15;;;20.50;93.60;;;;;;5042804;28;20044;-63
2021/09/27 11:32:31;;;;;;;5.45;2.42;;;20.50;93.50;;;;;;5047503;28;20044;-63
2021/09/27 11:35:06;;;;;;;6.90;3.40;;;20.60;94.00;;;;;;5021628;28;20037;-63
2021/09/27 11:37:51;;;;;;;4.55;2.63;;;20.60;92.90;;;;;;5048435;28;20476;-63
2021/09/27 11:40:23;;;;;;;5.05;2.17;;;20.50;92.60;;;;;;5047690;28;20104;-63
2021/09/27 11:42:54;;;;;;;2.88;2.40;;;20.50;93.00;;;;;;5051176;28;20029;-63
2021/09/27 11:45:45;;;;;;;4.28;2.78;;;20.50;93.30;;;;;;5047536;28;20025;-64
2021/09/27 11:48:34;;;;;;;4.20;2.38;;;20.40;93.10;;;;;;5047182;28;20029;-63
2021/09/27 11:51:05;;;;;;;3.78;2.08;;;20.30;93.20;;;;;;5023383;28;20040;-64
2021/09/27 11:54:01;;;;;;;3.78;2.35;;;20.30;92.90;;;;;;5051004;28;20099;-63
2021/09/27 11:56:29;;;;;;;5.82;2.40;;;20.30;93.00;;;;;;5050772;28;20037;-63
2021/09/27 11:59:07;;;;;;;5.03;2.50;;;20.20;93.20;;;;;;5045588;28;20028;-63
2021/09/27 12:01:57;;;;;;;2.95;2.25;;;20.20;92.80;;;;;;5047314;28;20021;-63
2021/09/27 12:04:44;;;;;;;3.63;2.38;;;20.20;93.50;;;;;;5052266;28;20112;-63
2021/09/27 12:07:14;;;;;;;3.88;2.40;;;20.20;93.00;;;;;;5035285;28;20505;-63
2021/09/27 12:10:16;;;;;;;2.28;1.63;;;20.20;92.80;;;;;;5034616;28;20059;-63
2021/09/27 12:12:50;;;;;;;4.18;2.03;;;20.20;92.80;;;;;;5030311;28;20105;-63
2021/09/27 12:15:22;;;;;;;2.30;1.98;;;20.20;93.00;;;;;;5054008;28;20098;-64
2021/09/27 12:17:48;;;;;;;4.65;2.30;;;20.30;93.10;;;;;;5049212;28;20024;-63
2021/09/27 12:20:21;;;;;;;3.70;2.10;;;20.30;93.10;;;;;;5019262;28;20025;-63
2021/09/27 12:23:00;;;;;;;3.35;2.00;;;20.30;92.70;;;;;;5050165;28;20104;-63
2021/09/27 12:25:32;;;;;;;5.53;2.05;;;20.40;92.60;;;;;;5051920;28;20020;-63
2021/09/27 12:28:06;;;;;;;4.32;2.38;;;20.40;92.70;;;;;;5053992;28;20025;-63
2021/09/27 12:30:42;;;;;;;3.35;2.38;;;20.60;92.40;;;;;;5054480;28;20033;-64
2021/09/27 12:33:11;;;;;;;3.33;2.00;;;20.70;92.10;;;;;;5053811;28;20036;-63
2021/09/27 12:35:46;;;;;;;5.55;1.95;;;20.80;92.50;;;;;;5036348;28;20028;-63
2021/09/27 12:38:17;;;;;;;4.80;2.22;;;20.90;92.10;;;;;;5048856;28;20489;-63
2021/09/27 12:40:50;;;;;;;5.32;1.98;;;20.80;91.70;;;;;;5051340;28;20041;-63
2021/09/27 12:43:30;;;;;;;4.22;1.80;;;20.80;91.90;;;;;;5051587;28;20079;-64
2021/09/27 12:46:01;;;;;;;3.80;1.60;;;20.80;91.80;;;;;;5052116;28;20060;-64
2021/09/27 12:48:30;;;;;;;2.90;1.85;;;20.80;91.60;;;;;;5053642;28;20017;-63
2021/09/27 12:51:02;;;;;;;6.43;2.00;;;20.70;91.30;;;;;;5053994;28;20081;-63
2021/09/27 12:53:41;;;;;;;2.97;2.05;;;20.70;91.60;;;;;;5053775;28;20067;-64
2021/09/27 12:56:07;;;;;;;2.50;1.70;;;20.70;91.40;;;;;;5033072;28;20080;-63
2021/09/27 12:58:40;;;;;;;3.97;1.80;;;20.70;91.60;;;;;;5041292;28;20021;-64
2021/09/27 13:01:12;;;;;;;4.57;2.38;;;20.70;91.50;;;;;;5033941;28;20025;-63
2021/09/27 13:03:46;;;;;;;3.90;1.70;;;20.70;91.90;;;;;;5054096;28;20021;-63
2021/09/27 13:06:32;;;;;;;3.30;1.80;;;20.60;92.10;;;;;;5057703;28;20024;-64
2021/09/27 13:09:12;;;;;;;3.33;1.95;;;20.60;92.20;;;;;;5042937;28;20501;-64
2021/09/27 13:11:44;;;;;;;3.72;1.83;;;20.60;92.30;;;;;;5054632;28;20021;-63
2021/09/27 13:14:19;;;;;;;3.10;1.65;;;20.50;92.50;;;;;;5051207;28;20017;-63
2021/09/27 13:16:47;;;;;;;2.97;1.85;;;20.50;92.40;;;;;;5044558;28;20029;-64
2021/09/27 13:19:38;;;;;;;3.10;1.80;;;20.50;92.70;;;;;;5053968;28;20021;-63
2021/09/27 13:22:11;;;;;;;2.10;1.50;;;20.40;92.80;;;;;;5054694;28;20107;-63